Sao Vicente de Minas, Brazil
Current Conditions -  °F | °C
As of 11:00 AM on Thursday 30 Oct 2014 (Local Time) from SBBQ Reporting Station
Scattered Clouds Scattered Clouds  
Wind Chill: 75°   Ceiling: Unl
Heat Index: 75°   Visibility: 6mi
Dew Point: 59°   Wind: 7mph
Humidity: 57%   Direction: 350°N
Pressure: 30.12"   Gusts: NA
Location:  21.71°S, 44.44°W
Report Text: SBBQ 301300Z 35006KT 9999 SCT025 24/15 Q1020
Loading
Personal Weather Stations






























Interactive Weather Map
Tropical Storm Tracking
New forecast layout! Learn more

10-Day Weather Forecast

Advertisements
Track Severe Weather on mobile